FDB7ML LUKK-OMDB
Flight info
| Callsign | FDB7ML |
|---|---|
| Flight time | N/A |
| Altitude | 32000 |
| Route | LIPTA T34 KODRU DCT GLT DCT DINRO/N0463F330 DCT ARTAT UP975 ERGUN UL124 KONUK/N0460F350 UL124 EVSAS UM688 SIDAD P975 SESRU M677 VUTEB |
| Aircraft | B738/M-SDE2E3FGHIRWXY/LB1 |
Departure
| Time | N/A |
|---|---|
| Airport | Chişinău International Airport (LUKK) |
Arrival
| Time | 2026-04-25 17:18 |
|---|---|
| Airport | Dubai International Airport (OMDB) |
| Time | Latitude | Longitude | Altitude | Speed | Heading |
|---|---|---|---|---|---|
| 2026-04-25 14:00 | 40.50034 | 35.82890 | 33046 ft | 493 kts | 109° |
| 2026-04-25 14:00 | 40.49052 | 35.87145 | 33047 ft | 493 kts | 109° |
| 2026-04-25 14:01 | 40.47051 | 35.95775 | 33046 ft | 493 kts | 109° |
| 2026-04-25 14:01 | 40.45059 | 36.04337 | 33047 ft | 493 kts | 109° |
| 2026-04-25 14:02 | 40.43063 | 36.12868 | 33048 ft | 495 kts | 109° |
| 2026-04-25 14:02 | 40.41036 | 36.21508 | 33046 ft | 493 kts | 109° |
| 2026-04-25 14:03 | 40.39022 | 36.30063 | 33047 ft | 493 kts | 109° |
| 2026-04-25 14:03 | 40.36997 | 36.38634 | 33048 ft | 494 kts | 109° |
| 2026-04-25 14:04 | 40.34951 | 36.47254 | 33046 ft | 494 kts | 109° |
| 2026-04-25 14:04 | 40.32913 | 36.55808 | 33045 ft | 492 kts | 109° |
| 2026-04-25 14:05 | 40.30870 | 36.64359 | 33047 ft | 493 kts | 109° |
| 2026-04-25 14:05 | 40.28820 | 36.72925 | 33047 ft | 493 kts | 109° |
| 2026-04-25 14:06 | 40.26769 | 36.81458 | 33067 ft | 492 kts | 109° |
| 2026-04-25 14:06 | 40.24706 | 36.89999 | 33088 ft | 493 kts | 109° |
| 2026-04-25 14:07 | 40.22632 | 36.98556 | 33123 ft | 493 kts | 110° |
| 2026-04-25 14:07 | 40.20562 | 37.07059 | 33128 ft | 493 kts | 111° |
| 2026-04-25 14:08 | 40.18478 | 37.15569 | 33127 ft | 490 kts | 112° |
| 2026-04-25 14:08 | 40.16393 | 37.24037 | 33127 ft | 486 kts | 112° |
| 2026-04-25 14:09 | 40.14309 | 37.32463 | 33132 ft | 489 kts | 112° |
| 2026-04-25 14:09 | 40.12219 | 37.40900 | 33128 ft | 491 kts | 112° |
| 2026-04-25 14:10 | 40.10120 | 37.49368 | 33126 ft | 490 kts | 112° |
| 2026-04-25 14:10 | 40.08023 | 37.57784 | 33127 ft | 487 kts | 113° |
| 2026-04-25 14:11 | 40.05682 | 37.66008 | 33127 ft | 485 kts | 117° |
| 2026-04-25 14:11 | 40.03238 | 37.74232 | 33128 ft | 486 kts | 116° |
| 2026-04-25 14:12 | 40.00803 | 37.82497 | 33131 ft | 488 kts | 116° |
| 2026-04-25 14:12 | 39.98393 | 37.90689 | 33125 ft | 486 kts | 116° |
| 2026-04-25 14:13 | 39.95966 | 37.98922 | 33129 ft | 485 kts | 116° |
| 2026-04-25 14:13 | 39.93547 | 38.07098 | 33130 ft | 486 kts | 116° |
| 2026-04-25 14:14 | 39.91126 | 38.15270 | 33127 ft | 485 kts | 116° |
| 2026-04-25 14:14 | 39.88698 | 38.23428 | 33125 ft | 485 kts | 116° |
| 2026-04-25 14:15 | 39.86252 | 38.31621 | 33118 ft | 488 kts | 116° |
| 2026-04-25 14:15 | 39.83805 | 38.39814 | 33103 ft | 485 kts | 116° |
| 2026-04-25 14:16 | 39.81351 | 38.47981 | 33101 ft | 487 kts | 116° |
| 2026-04-25 14:16 | 39.78875 | 38.56192 | 33102 ft | 488 kts | 116° |
| 2026-04-25 14:17 | 39.76411 | 38.64351 | 33098 ft | 485 kts | 116° |
| 2026-04-25 14:17 | 39.73959 | 38.72461 | 33103 ft | 485 kts | 116° |
| 2026-04-25 14:18 | 39.71472 | 38.80658 | 33101 ft | 487 kts | 117° |
| 2026-04-25 14:18 | 39.68994 | 38.88802 | 33099 ft | 485 kts | 117° |
| 2026-04-25 14:19 | 39.66509 | 38.96928 | 33101 ft | 485 kts | 117° |
| 2026-04-25 14:19 | 39.64018 | 39.05044 | 33103 ft | 487 kts | 117° |
| 2026-04-25 14:20 | 39.61516 | 39.13179 | 33100 ft | 487 kts | 117° |
| 2026-04-25 14:20 | 39.59019 | 39.21285 | 33099 ft | 483 kts | 117° |
| 2026-04-25 14:21 | 39.56514 | 39.29371 | 33103 ft | 486 kts | 117° |
| 2026-04-25 14:21 | 39.53992 | 39.37480 | 33102 ft | 486 kts | 117° |
| 2026-04-25 14:22 | 39.51470 | 39.45593 | 33099 ft | 484 kts | 117° |
| 2026-04-25 14:22 | 39.49188 | 39.53836 | 33102 ft | 489 kts | 112° |
| 2026-04-25 14:23 | 39.47103 | 39.62206 | 33100 ft | 488 kts | 113° |
| 2026-04-25 14:23 | 39.44972 | 39.70552 | 33101 ft | 486 kts | 114° |
| 2026-04-25 14:24 | 39.42848 | 39.78824 | 33100 ft | 485 kts | 114° |
| 2026-04-25 14:24 | 39.40710 | 39.87073 | 33105 ft | 489 kts | 114° |
| 2026-04-25 14:25 | 39.38543 | 39.95401 | 33101 ft | 489 kts | 114° |
| 2026-04-25 14:25 | 39.36377 | 40.03696 | 33097 ft | 488 kts | 114° |
| 2026-04-25 14:26 | 39.34190 | 40.12011 | 33101 ft | 487 kts | 115° |
| 2026-04-25 14:26 | 39.31556 | 40.19961 | 33096 ft | 476 kts | 127° |
| 2026-04-25 14:27 | 39.27719 | 40.26787 | 33105 ft | 471 kts | 133° |
| 2026-04-25 14:27 | 39.23735 | 40.33521 | 33099 ft | 474 kts | 133° |
| 2026-04-25 14:28 | 39.19753 | 40.40269 | 33105 ft | 472 kts | 133° |
| 2026-04-25 14:28 | 39.15794 | 40.46946 | 33115 ft | 471 kts | 133° |
| 2026-04-25 14:29 | 39.11798 | 40.53661 | 33123 ft | 472 kts | 133° |
| 2026-04-25 14:29 | 39.07781 | 40.60397 | 33129 ft | 474 kts | 133° |
| 2026-04-25 14:30 | 39.03793 | 40.67078 | 33119 ft | 472 kts | 134° |
| 2026-04-25 14:30 | 38.97808 | 40.77066 | 33104 ft | 472 kts | 133° |
| 2026-04-25 14:31 | 38.93788 | 40.83754 | 33104 ft | 475 kts | 133° |
| 2026-04-25 14:31 | 38.89757 | 40.90454 | 33101 ft | 475 kts | 133° |
| 2026-04-25 14:32 | 38.85727 | 40.97145 | 33097 ft | 473 kts | 133° |
| 2026-04-25 14:32 | 38.81709 | 41.03792 | 33100 ft | 474 kts | 133° |
| 2026-04-25 14:33 | 38.77676 | 41.10448 | 33100 ft | 473 kts | 133° |
| 2026-04-25 14:33 | 38.73652 | 41.17079 | 33099 ft | 474 kts | 133° |
| 2026-04-25 14:34 | 38.69617 | 41.23712 | 33099 ft | 472 kts | 133° |
| 2026-04-25 14:34 | 38.65556 | 41.30365 | 33101 ft | 474 kts | 133° |
| 2026-04-25 14:35 | 38.61522 | 41.36968 | 33101 ft | 473 kts | 133° |
| 2026-04-25 14:35 | 38.57509 | 41.43631 | 33101 ft | 472 kts | 131° |
| 2026-04-25 14:36 | 38.53625 | 41.50429 | 33103 ft | 476 kts | 131° |
| 2026-04-25 14:36 | 38.49725 | 41.57225 | 33098 ft | 474 kts | 131° |
| 2026-04-25 14:37 | 38.45849 | 41.63939 | 33102 ft | 474 kts | 131° |
| 2026-04-25 14:37 | 38.41941 | 41.70691 | 33100 ft | 474 kts | 132° |
| 2026-04-25 14:38 | 38.38011 | 41.77458 | 33100 ft | 474 kts | 132° |
| 2026-04-25 14:38 | 38.34095 | 41.84189 | 33100 ft | 474 kts | 132° |
| 2026-04-25 14:39 | 38.30184 | 41.90903 | 33103 ft | 474 kts | 132° |
| 2026-04-25 14:39 | 38.26231 | 41.97662 | 33102 ft | 475 kts | 132° |
| 2026-04-25 14:40 | 38.22298 | 42.04384 | 33100 ft | 476 kts | 132° |
| 2026-04-25 14:40 | 38.18345 | 42.11131 | 33079 ft | 474 kts | 132° |
| 2026-04-25 14:41 | 38.14416 | 42.17818 | 33058 ft | 473 kts | 132° |
| 2026-04-25 14:41 | 38.10460 | 42.24531 | 33039 ft | 475 kts | 132° |
| 2026-04-25 14:42 | 38.07180 | 42.30096 | 33024 ft | 473 kts | 132° |
| 2026-04-25 14:42 | 38.02586 | 42.37867 | 33023 ft | 475 kts | 132° |
| 2026-04-25 14:43 | 37.98616 | 42.44569 | 33018 ft | 475 kts | 132° |
| 2026-04-25 14:43 | 37.94664 | 42.51229 | 33025 ft | 473 kts | 132° |
| 2026-04-25 14:44 | 37.90706 | 42.57882 | 33063 ft | 474 kts | 132° |
| 2026-04-25 14:44 | 37.86735 | 42.64545 | 33082 ft | 475 kts | 132° |
| 2026-04-25 14:45 | 37.83115 | 42.71572 | 33082 ft | 478 kts | 126° |
| 2026-04-25 14:45 | 37.79736 | 42.78776 | 33079 ft | 477 kts | 126° |
| 2026-04-25 14:46 | 37.76318 | 42.85955 | 33089 ft | 477 kts | 126° |
| 2026-04-25 14:46 | 37.72900 | 42.93105 | 33110 ft | 475 kts | 127° |
| 2026-04-25 14:47 | 37.70034 | 42.99075 | 33115 ft | 478 kts | 127° |
| 2026-04-25 14:47 | 37.65975 | 43.07488 | 33110 ft | 485 kts | 126° |
| 2026-04-25 14:48 | 37.62471 | 43.14746 | 33122 ft | 489 kts | 126° |
| 2026-04-25 14:48 | 37.58935 | 43.22052 | 33148 ft | 488 kts | 126° |
| 2026-04-25 14:49 | 37.55385 | 43.29362 | 33164 ft | 494 kts | 125° |
| 2026-04-25 14:49 | 37.51809 | 43.36721 | 33168 ft | 491 kts | 126° |
| 2026-04-25 14:50 | 37.48254 | 43.44020 | 33177 ft | 488 kts | 126° |
| 2026-04-25 14:50 | 37.44707 | 43.51281 | 33187 ft | 492 kts | 126° |
| 2026-04-25 14:51 | 37.41134 | 43.58594 | 33177 ft | 490 kts | 126° |
| 2026-04-25 14:51 | 37.37561 | 43.65895 | 33182 ft | 486 kts | 127° |
| 2026-04-25 14:52 | 37.34025 | 43.73094 | 33181 ft | 488 kts | 126° |
| 2026-04-25 14:52 | 37.31038 | 43.79165 | 33184 ft | 491 kts | 126° |
| 2026-04-25 14:53 | 37.26806 | 43.87578 | 33177 ft | 488 kts | 130° |
| 2026-04-25 14:53 | 37.22193 | 43.93554 | 33178 ft | 471 kts | 154° |
| 2026-04-25 14:54 | 37.16340 | 43.96849 | 33186 ft | 463 kts | 165° |
| 2026-04-25 14:54 | 37.10286 | 43.99736 | 33184 ft | 464 kts | 165° |
| 2026-04-25 14:55 | 37.04336 | 44.02576 | 33179 ft | 454 kts | 164° |
| 2026-04-25 14:55 | 36.98483 | 44.05341 | 33182 ft | 448 kts | 163° |
| 2026-04-25 14:56 | 36.92652 | 44.08064 | 33168 ft | 450 kts | 162° |
| 2026-04-25 14:56 | 36.86782 | 44.10793 | 33099 ft | 452 kts | 162° |
| 2026-04-25 14:57 | 36.80921 | 44.13512 | 33028 ft | 450 kts | 162° |
| 2026-04-25 14:57 | 36.75078 | 44.16220 | 32993 ft | 449 kts | 163° |
| 2026-04-25 14:58 | 36.69244 | 44.18910 | 32993 ft | 451 kts | 162° |
| 2026-04-25 14:58 | 36.63363 | 44.21613 | 32992 ft | 450 kts | 162° |
| 2026-04-25 14:59 | 36.57505 | 44.24302 | 32992 ft | 449 kts | 162° |
| 2026-04-25 14:59 | 36.51682 | 44.26975 | 32993 ft | 451 kts | 163° |
| 2026-04-25 15:00 | 36.45781 | 44.29680 | 32993 ft | 451 kts | 162° |
| 2026-04-25 15:00 | 36.39956 | 44.32342 | 32992 ft | 449 kts | 163° |
| 2026-04-25 15:01 | 36.34084 | 44.35023 | 32994 ft | 450 kts | 162° |
| 2026-04-25 15:01 | 36.28225 | 44.37691 | 32992 ft | 449 kts | 163° |
| 2026-04-25 15:02 | 36.22372 | 44.40347 | 32995 ft | 451 kts | 162° |
| 2026-04-25 15:02 | 36.16491 | 44.43018 | 32993 ft | 452 kts | 162° |
| 2026-04-25 15:03 | 36.10634 | 44.45674 | 32992 ft | 450 kts | 163° |
| 2026-04-25 15:03 | 36.04755 | 44.48335 | 32993 ft | 450 kts | 162° |
| 2026-04-25 15:04 | 35.98871 | 44.50996 | 32993 ft | 451 kts | 162° |
| 2026-04-25 15:04 | 35.93048 | 44.53628 | 32991 ft | 449 kts | 162° |
| 2026-04-25 15:05 | 35.87180 | 44.56272 | 32994 ft | 450 kts | 163° |
| 2026-04-25 15:06 | 35.78362 | 44.60231 | 32992 ft | 450 kts | 162° |
| 2026-04-25 15:06 | 35.72504 | 44.62860 | 32994 ft | 450 kts | 163° |
| 2026-04-25 15:07 | 35.66626 | 44.65495 | 32993 ft | 451 kts | 163° |
| 2026-04-25 15:07 | 35.60721 | 44.68135 | 32992 ft | 451 kts | 163° |
| 2026-04-25 15:08 | 35.54882 | 44.70744 | 32992 ft | 449 kts | 163° |
| 2026-04-25 15:08 | 35.49034 | 44.73354 | 32993 ft | 450 kts | 163° |
| 2026-04-25 15:09 | 35.43134 | 44.75977 | 32994 ft | 453 kts | 163° |
| 2026-04-25 15:09 | 35.34313 | 44.79898 | 32993 ft | 449 kts | 163° |
| 2026-04-25 15:10 | 35.28462 | 44.82492 | 32994 ft | 449 kts | 163° |
| 2026-04-25 15:11 | 35.19678 | 44.86377 | 32994 ft | 452 kts | 163° |
| 2026-04-25 15:11 | 35.13749 | 44.88995 | 32991 ft | 452 kts | 163° |
| 2026-04-25 15:12 | 35.04923 | 44.92889 | 32996 ft | 454 kts | 163° |
| 2026-04-25 15:12 | 34.99977 | 44.95063 | 32991 ft | 455 kts | 163° |
| 2026-04-25 15:13 | 34.90081 | 44.99403 | 32993 ft | 453 kts | 163° |
| 2026-04-25 15:14 | 34.84286 | 45.01947 | 32982 ft | 451 kts | 163° |
| 2026-04-25 15:14 | 34.78389 | 45.04526 | 32957 ft | 453 kts | 163° |
| 2026-04-25 15:15 | 34.72478 | 45.07110 | 32925 ft | 454 kts | 163° |
| 2026-04-25 15:15 | 34.66533 | 45.09705 | 32911 ft | 452 kts | 163° |
| 2026-04-25 15:16 | 34.60655 | 45.12264 | 32913 ft | 454 kts | 163° |
| 2026-04-25 15:16 | 34.51684 | 45.15937 | 32910 ft | 451 kts | 169° |
| 2026-04-25 15:17 | 34.42473 | 45.17326 | 32913 ft | 446 kts | 179° |
| 2026-04-25 15:18 | 34.36314 | 45.17795 | 32910 ft | 446 kts | 179° |
| 2026-04-25 15:18 | 34.27055 | 45.18469 | 32913 ft | 447 kts | 179° |
| 2026-04-25 15:19 | 34.21870 | 45.18832 | 32913 ft | 448 kts | 179° |
| 2026-04-25 15:19 | 34.14669 | 45.19324 | 32911 ft | 445 kts | 180° |
| 2026-04-25 15:20 | 34.08488 | 45.19740 | 32912 ft | 445 kts | 180° |
| 2026-04-25 15:20 | 34.02321 | 45.20170 | 32914 ft | 447 kts | 180° |
| 2026-04-25 15:21 | 33.96133 | 45.20584 | 32913 ft | 447 kts | 180° |
| 2026-04-25 15:21 | 33.89929 | 45.21004 | 32911 ft | 446 kts | 179° |
| 2026-04-25 15:22 | 33.83760 | 45.21433 | 32912 ft | 445 kts | 179° |
| 2026-04-25 15:22 | 33.77590 | 45.21855 | 32913 ft | 447 kts | 180° |
| 2026-04-25 15:23 | 33.71426 | 45.22272 | 32911 ft | 446 kts | 180° |
| 2026-04-25 15:23 | 33.65269 | 45.22685 | 32911 ft | 445 kts | 179° |
| 2026-04-25 15:24 | 33.59071 | 45.23094 | 32912 ft | 446 kts | 179° |
| 2026-04-25 15:24 | 33.53914 | 45.23436 | 32913 ft | 447 kts | 180° |
| 2026-04-25 15:25 | 33.46684 | 45.23915 | 32910 ft | 446 kts | 180° |
| 2026-04-25 15:25 | 33.40479 | 45.24320 | 32911 ft | 446 kts | 180° |
| 2026-04-25 15:26 | 33.34335 | 45.24849 | 32909 ft | 446 kts | 174° |
| 2026-04-25 15:26 | 33.28419 | 45.27084 | 32911 ft | 457 kts | 154° |
| 2026-04-25 15:27 | 33.23190 | 45.31530 | 32915 ft | 464 kts | 145° |
| 2026-04-25 15:28 | 33.15635 | 45.38617 | 32911 ft | 461 kts | 145° |
| 2026-04-25 15:28 | 33.10605 | 45.43331 | 32912 ft | 461 kts | 145° |
| 2026-04-25 15:29 | 33.05564 | 45.48056 | 32912 ft | 462 kts | 145° |
| 2026-04-25 15:29 | 33.00563 | 45.52746 | 32911 ft | 459 kts | 145° |
| 2026-04-25 15:30 | 32.95554 | 45.57436 | 32912 ft | 458 kts | 145° |
| 2026-04-25 15:30 | 32.90546 | 45.62120 | 32913 ft | 459 kts | 145° |
| 2026-04-25 15:31 | 32.85499 | 45.66834 | 32906 ft | 460 kts | 146° |
| 2026-04-25 15:31 | 32.80501 | 45.71500 | 32892 ft | 459 kts | 146° |
| 2026-04-25 15:32 | 32.75476 | 45.76192 | 32877 ft | 459 kts | 146° |
| 2026-04-25 15:32 | 32.70492 | 45.80835 | 32862 ft | 458 kts | 146° |
| 2026-04-25 15:33 | 32.62978 | 45.87823 | 32859 ft | 460 kts | 146° |
| 2026-04-25 15:33 | 32.57956 | 45.92485 | 32856 ft | 459 kts | 146° |
| 2026-04-25 15:34 | 32.52916 | 45.97158 | 32858 ft | 459 kts | 146° |
| 2026-04-25 15:34 | 32.48775 | 46.00993 | 32857 ft | 459 kts | 146° |
| 2026-04-25 15:35 | 32.40374 | 46.08752 | 32857 ft | 458 kts | 146° |
| 2026-04-25 15:36 | 32.32856 | 46.15688 | 32860 ft | 460 kts | 146° |
| 2026-04-25 15:36 | 32.27843 | 46.20301 | 33112 ft | 455 kts | 146° |
| 2026-04-25 15:37 | 32.25327 | 46.22616 | 33219 ft | 457 kts | 146° |
| 2026-04-25 15:37 | 32.22807 | 46.24929 | 33210 ft | 460 kts | 146° |
| 2026-04-25 15:37 | 32.17798 | 46.29527 | 33207 ft | 459 kts | 146° |
| 2026-04-25 15:38 | 32.12762 | 46.34140 | 33208 ft | 457 kts | 146° |
| 2026-04-25 15:38 | 32.07745 | 46.38730 | 33208 ft | 457 kts | 146° |
| 2026-04-25 15:39 | 32.02744 | 46.43297 | 33209 ft | 457 kts | 146° |
| 2026-04-25 15:39 | 31.97736 | 46.47865 | 33204 ft | 458 kts | 146° |
| 2026-04-25 15:40 | 31.93530 | 46.51695 | 33156 ft | 459 kts | 146° |
| 2026-04-25 15:40 | 31.87668 | 46.57033 | 33052 ft | 457 kts | 146° |
| 2026-04-25 15:41 | 31.82616 | 46.61619 | 32977 ft | 459 kts | 146° |
| 2026-04-25 15:41 | 31.77660 | 46.66113 | 32965 ft | 458 kts | 146° |
| 2026-04-25 15:42 | 31.72612 | 46.70686 | 32966 ft | 458 kts | 146° |
| 2026-04-25 15:42 | 31.67575 | 46.75240 | 32967 ft | 460 kts | 146° |
| 2026-04-25 15:43 | 31.62508 | 46.79821 | 32964 ft | 459 kts | 146° |
| 2026-04-25 15:43 | 31.57482 | 46.84354 | 32965 ft | 459 kts | 146° |
| 2026-04-25 15:44 | 31.52428 | 46.88905 | 32967 ft | 460 kts | 146° |
| 2026-04-25 15:44 | 31.47375 | 46.93453 | 32964 ft | 459 kts | 146° |
| 2026-04-25 15:45 | 31.42327 | 46.97989 | 32966 ft | 458 kts | 146° |
| 2026-04-25 15:45 | 31.38112 | 47.01770 | 32966 ft | 458 kts | 147° |
| 2026-04-25 15:46 | 31.32193 | 47.07068 | 32966 ft | 460 kts | 147° |
| 2026-04-25 15:46 | 31.27128 | 47.11599 | 32965 ft | 459 kts | 147° |
| 2026-04-25 15:47 | 31.22066 | 47.16123 | 32966 ft | 459 kts | 147° |
| 2026-04-25 15:47 | 31.17013 | 47.20630 | 32966 ft | 460 kts | 147° |
| 2026-04-25 15:48 | 31.11923 | 47.25164 | 32966 ft | 459 kts | 147° |
| 2026-04-25 15:48 | 31.06858 | 47.29673 | 32967 ft | 459 kts | 147° |
| 2026-04-25 15:49 | 31.01805 | 47.34163 | 32967 ft | 459 kts | 147° |
| 2026-04-25 15:49 | 30.96731 | 47.38666 | 32967 ft | 460 kts | 147° |
| 2026-04-25 15:50 | 30.91780 | 47.43055 | 32965 ft | 458 kts | 148° |
| 2026-04-25 15:50 | 30.86792 | 47.47470 | 32983 ft | 456 kts | 148° |
| 2026-04-25 15:51 | 30.84320 | 47.49656 | 33108 ft | 455 kts | 148° |
| 2026-04-25 15:51 | 30.82666 | 47.51182 | 33191 ft | 458 kts | 146° |
| 2026-04-25 15:51 | 30.79572 | 47.54398 | 33355 ft | 462 kts | 143° |
| 2026-04-25 15:51 | 30.77212 | 47.56918 | 33480 ft | 464 kts | 143° |
| 2026-04-25 15:52 | 30.74829 | 47.59431 | 33605 ft | 465 kts | 143° |
| 2026-04-25 15:52 | 30.72461 | 47.61915 | 33728 ft | 465 kts | 143° |
| 2026-04-25 15:52 | 30.70070 | 47.64420 | 33852 ft | 465 kts | 143° |
| 2026-04-25 15:52 | 30.67690 | 47.66911 | 33975 ft | 464 kts | 144° |
| 2026-04-25 15:53 | 30.65374 | 47.69329 | 34096 ft | 464 kts | 144° |
| 2026-04-25 15:53 | 30.63121 | 47.71677 | 34214 ft | 464 kts | 144° |
| 2026-04-25 15:53 | 30.60809 | 47.74086 | 34335 ft | 463 kts | 144° |
| 2026-04-25 15:53 | 30.58420 | 47.76572 | 34460 ft | 463 kts | 144° |
| 2026-04-25 15:54 | 30.56063 | 47.79023 | 34583 ft | 463 kts | 144° |
| 2026-04-25 15:54 | 30.53689 | 47.81490 | 34707 ft | 463 kts | 144° |
| 2026-04-25 15:54 | 30.51289 | 47.83981 | 34833 ft | 462 kts | 144° |
| 2026-04-25 15:54 | 30.48938 | 47.86420 | 34939 ft | 462 kts | 144° |
| 2026-04-25 15:55 | 30.44253 | 47.91273 | 34951 ft | 462 kts | 144° |
| 2026-04-25 15:55 | 30.40925 | 47.94720 | 34946 ft | 460 kts | 144° |
| 2026-04-25 15:56 | 30.36240 | 47.99561 | 34942 ft | 461 kts | 144° |
| 2026-04-25 15:56 | 30.31521 | 48.04431 | 34939 ft | 462 kts | 144° |
| 2026-04-25 15:57 | 30.26724 | 48.09377 | 34939 ft | 462 kts | 144° |
| 2026-04-25 15:57 | 30.21951 | 48.14291 | 34939 ft | 462 kts | 144° |
| 2026-04-25 15:58 | 30.17173 | 48.19203 | 34939 ft | 462 kts | 144° |
| 2026-04-25 15:58 | 30.12374 | 48.24129 | 34938 ft | 462 kts | 144° |
| 2026-04-25 15:59 | 30.07595 | 48.29028 | 34939 ft | 462 kts | 144° |
| 2026-04-25 15:59 | 30.02785 | 48.33953 | 34939 ft | 462 kts | 144° |
| 2026-04-25 16:00 | 29.98794 | 48.38034 | 34939 ft | 462 kts | 144° |
| 2026-04-25 16:00 | 29.93217 | 48.43731 | 34939 ft | 462 kts | 144° |
| 2026-04-25 16:01 | 29.88321 | 48.48476 | 34938 ft | 458 kts | 149° |
| 2026-04-25 16:01 | 29.82927 | 48.52139 | 34942 ft | 449 kts | 159° |
| 2026-04-25 16:02 | 29.77391 | 48.55384 | 34938 ft | 449 kts | 159° |
| 2026-04-25 16:02 | 29.71829 | 48.58644 | 34939 ft | 449 kts | 159° |
| 2026-04-25 16:03 | 29.66293 | 48.61867 | 34938 ft | 449 kts | 159° |
| 2026-04-25 16:03 | 29.60711 | 48.65102 | 34939 ft | 449 kts | 160° |
| 2026-04-25 16:04 | 29.55146 | 48.68320 | 34938 ft | 448 kts | 160° |
| 2026-04-25 16:04 | 29.49594 | 48.71522 | 34939 ft | 448 kts | 160° |
| 2026-04-25 16:05 | 29.44015 | 48.74735 | 34939 ft | 448 kts | 160° |
| 2026-04-25 16:06 | 29.35690 | 48.79528 | 34939 ft | 449 kts | 160° |
| 2026-04-25 16:06 | 29.30109 | 48.82742 | 34939 ft | 449 kts | 160° |
| 2026-04-25 16:07 | 29.24541 | 48.85942 | 34964 ft | 449 kts | 160° |
| 2026-04-25 16:07 | 29.19008 | 48.89125 | 34965 ft | 450 kts | 159° |
| 2026-04-25 16:08 | 29.13645 | 48.92858 | 34963 ft | 459 kts | 148° |
| 2026-04-25 16:08 | 29.08761 | 48.97545 | 34966 ft | 461 kts | 146° |
| 2026-04-25 16:09 | 29.03861 | 49.02289 | 34966 ft | 460 kts | 147° |
| 2026-04-25 16:09 | 28.99665 | 49.06356 | 34966 ft | 460 kts | 147° |
| 2026-04-25 16:10 | 28.94816 | 49.11059 | 34966 ft | 460 kts | 148° |
| 2026-04-25 16:10 | 28.89973 | 49.15756 | 34965 ft | 459 kts | 148° |
| 2026-04-25 16:11 | 28.85162 | 49.20497 | 34966 ft | 461 kts | 146° |
| 2026-04-25 16:11 | 28.80423 | 49.25389 | 34962 ft | 461 kts | 146° |
| 2026-04-25 16:12 | 28.75680 | 49.30260 | 34953 ft | 460 kts | 146° |
| 2026-04-25 16:12 | 28.70925 | 49.35134 | 34945 ft | 460 kts | 146° |
| 2026-04-25 16:13 | 28.66183 | 49.39987 | 34940 ft | 460 kts | 146° |
| 2026-04-25 16:13 | 28.61565 | 49.45124 | 34939 ft | 468 kts | 139° |
| 2026-04-25 16:14 | 28.57763 | 49.51201 | 34941 ft | 479 kts | 129° |
| 2026-04-25 16:14 | 28.54285 | 49.57643 | 34939 ft | 480 kts | 129° |
| 2026-04-25 16:15 | 28.50805 | 49.64092 | 34938 ft | 479 kts | 129° |
| 2026-04-25 16:15 | 28.47319 | 49.70582 | 34938 ft | 479 kts | 129° |
| 2026-04-25 16:16 | 28.43830 | 49.77010 | 34939 ft | 477 kts | 131° |
| 2026-04-25 16:16 | 28.39638 | 49.82645 | 34935 ft | 456 kts | 150° |
| 2026-04-25 16:17 | 28.34492 | 49.86694 | 34941 ft | 451 kts | 154° |
| 2026-04-25 16:17 | 28.29323 | 49.90665 | 34938 ft | 451 kts | 154° |
| 2026-04-25 16:18 | 28.24115 | 49.94650 | 34938 ft | 450 kts | 154° |
| 2026-04-25 16:18 | 28.18922 | 49.98604 | 34939 ft | 451 kts | 154° |
| 2026-04-25 16:19 | 28.13734 | 50.02543 | 34939 ft | 451 kts | 154° |
| 2026-04-25 16:19 | 28.08547 | 50.06477 | 34938 ft | 451 kts | 154° |
| 2026-04-25 16:20 | 28.00709 | 50.12405 | 34939 ft | 451 kts | 154° |
| 2026-04-25 16:21 | 27.92923 | 50.18283 | 34939 ft | 451 kts | 154° |
| 2026-04-25 16:21 | 27.87733 | 50.22193 | 34938 ft | 451 kts | 154° |
| 2026-04-25 16:22 | 27.82535 | 50.26104 | 34939 ft | 452 kts | 154° |
| 2026-04-25 16:22 | 27.77327 | 50.30021 | 34938 ft | 450 kts | 154° |
| 2026-04-25 16:23 | 27.72084 | 50.33959 | 34939 ft | 450 kts | 154° |
| 2026-04-25 16:23 | 27.66884 | 50.37860 | 34939 ft | 451 kts | 154° |
| 2026-04-25 16:24 | 27.61682 | 50.41760 | 34939 ft | 451 kts | 154° |
| 2026-04-25 16:24 | 27.56525 | 50.45715 | 34939 ft | 452 kts | 154° |
| 2026-04-25 16:25 | 27.51361 | 50.49679 | 34938 ft | 451 kts | 154° |
| 2026-04-25 16:25 | 27.46155 | 50.53665 | 34936 ft | 452 kts | 154° |
| 2026-04-25 16:26 | 27.41004 | 50.57606 | 34928 ft | 451 kts | 154° |
| 2026-04-25 16:26 | 27.35802 | 50.61580 | 34918 ft | 451 kts | 154° |
| 2026-04-25 16:27 | 27.30616 | 50.65536 | 34912 ft | 451 kts | 154° |
| 2026-04-25 16:27 | 27.25952 | 50.69092 | 34912 ft | 450 kts | 154° |
| 2026-04-25 16:28 | 27.20769 | 50.73038 | 34912 ft | 451 kts | 154° |
| 2026-04-25 16:28 | 27.15627 | 50.77097 | 34910 ft | 455 kts | 149° |
| 2026-04-25 16:29 | 27.10989 | 50.82005 | 34913 ft | 464 kts | 143° |
| 2026-04-25 16:29 | 27.06429 | 50.87101 | 34911 ft | 463 kts | 143° |
| 2026-04-25 16:30 | 27.01907 | 50.92261 | 34910 ft | 467 kts | 140° |
| 2026-04-25 16:30 | 26.97984 | 50.98138 | 34915 ft | 480 kts | 129° |
| 2026-04-25 16:31 | 26.94407 | 51.04512 | 34912 ft | 482 kts | 128° |
| 2026-04-25 16:31 | 26.90855 | 51.10849 | 34911 ft | 483 kts | 127° |
| 2026-04-25 16:32 | 26.87723 | 51.17210 | 34911 ft | 487 kts | 117° |
| 2026-04-25 16:32 | 26.85339 | 51.24332 | 34912 ft | 489 kts | 113° |
| 2026-04-25 16:33 | 26.83106 | 51.31508 | 34912 ft | 489 kts | 112° |
| 2026-04-25 16:33 | 26.80922 | 51.38616 | 34912 ft | 490 kts | 112° |
| 2026-04-25 16:34 | 26.78758 | 51.45728 | 34912 ft | 489 kts | 112° |
| 2026-04-25 16:34 | 26.76809 | 51.52154 | 34911 ft | 489 kts | 112° |
| 2026-04-25 16:35 | 26.74628 | 51.59359 | 34912 ft | 490 kts | 112° |
| 2026-04-25 16:35 | 26.72444 | 51.66585 | 34911 ft | 489 kts | 112° |
| 2026-04-25 16:36 | 26.70291 | 51.73780 | 34912 ft | 489 kts | 112° |
| 2026-04-25 16:36 | 26.68137 | 51.80964 | 34912 ft | 489 kts | 112° |
| 2026-04-25 16:37 | 26.65963 | 51.88194 | 34977 ft | 488 kts | 112° |
| 2026-04-25 16:37 | 26.63725 | 51.95352 | 35035 ft | 490 kts | 114° |
| 2026-04-25 16:38 | 26.61386 | 52.02465 | 35045 ft | 490 kts | 114° |
| 2026-04-25 16:38 | 26.59060 | 52.09576 | 35068 ft | 488 kts | 114° |
| 2026-04-25 16:39 | 26.56732 | 52.16689 | 35075 ft | 489 kts | 114° |
| 2026-04-25 16:39 | 26.54402 | 52.23795 | 35067 ft | 490 kts | 114° |
| 2026-04-25 16:40 | 26.52067 | 52.30911 | 35043 ft | 489 kts | 114° |
| 2026-04-25 16:40 | 26.49739 | 52.37994 | 34999 ft | 489 kts | 114° |
| 2026-04-25 16:40 | 26.48548 | 52.41610 | 34649 ft | 493 kts | 114° |
| 2026-04-25 16:41 | 26.47386 | 52.45141 | 34365 ft | 491 kts | 114° |
| 2026-04-25 16:41 | 26.46603 | 52.47518 | 34227 ft | 488 kts | 114° |
| 2026-04-25 16:41 | 26.43875 | 52.55782 | 33764 ft | 488 kts | 114° |
| 2026-04-25 16:42 | 26.42945 | 52.58593 | 33607 ft | 489 kts | 114° |
| 2026-04-25 16:42 | 26.41789 | 52.62085 | 33399 ft | 490 kts | 114° |
| 2026-04-25 16:42 | 26.40610 | 52.65649 | 33147 ft | 489 kts | 114° |
| 2026-04-25 16:42 | 26.39450 | 52.69157 | 32900 ft | 488 kts | 114° |
| 2026-04-25 16:43 | 26.38284 | 52.72681 | 32651 ft | 487 kts | 114° |
| 2026-04-25 16:43 | 26.37102 | 52.76249 | 32399 ft | 487 kts | 114° |
| 2026-04-25 16:43 | 26.35938 | 52.79759 | 32151 ft | 487 kts | 114° |
| 2026-04-25 16:43 | 26.34774 | 52.83263 | 31775 ft | 481 kts | 114° |
| 2026-04-25 16:44 | 26.33617 | 52.86746 | 31096 ft | 477 kts | 114° |
| 2026-04-25 16:44 | 26.32487 | 52.90148 | 31000 ft | 469 kts | 115° |
| 2026-04-25 16:44 | 26.30169 | 52.97082 | 30986 ft | 482 kts | 114° |
| 2026-04-25 16:45 | 26.27839 | 53.04047 | 30957 ft | 486 kts | 114° |
| 2026-04-25 16:45 | 26.25492 | 53.11062 | 30955 ft | 484 kts | 114° |
| 2026-04-25 16:46 | 26.23163 | 53.18000 | 30976 ft | 484 kts | 114° |
| 2026-04-25 16:46 | 26.21198 | 53.23844 | 30997 ft | 485 kts | 114° |
| 2026-04-25 16:47 | 26.18457 | 53.31977 | 31008 ft | 485 kts | 114° |
| 2026-04-25 16:47 | 26.15829 | 53.38885 | 31008 ft | 483 kts | 119° |
| 2026-04-25 16:48 | 26.13047 | 53.45582 | 31017 ft | 483 kts | 118° |
| 2026-04-25 16:48 | 26.10304 | 53.52290 | 31036 ft | 482 kts | 118° |
| 2026-04-25 16:49 | 26.07522 | 53.59091 | 31048 ft | 484 kts | 118° |
| 2026-04-25 16:49 | 26.04892 | 53.65529 | 31032 ft | 483 kts | 118° |
| 2026-04-25 16:50 | 26.02047 | 53.72496 | 31013 ft | 482 kts | 118° |
| 2026-04-25 16:50 | 25.99651 | 53.78410 | 30996 ft | 483 kts | 118° |
| 2026-04-25 16:51 | 25.96983 | 53.85244 | 30960 ft | 484 kts | 117° |
| 2026-04-25 16:51 | 25.94751 | 53.90934 | 30937 ft | 483 kts | 117° |
| 2026-04-25 16:52 | 25.92983 | 53.95444 | 30247 ft | 477 kts | 117° |
| 2026-04-25 16:52 | 25.91649 | 53.98827 | 29101 ft | 482 kts | 118° |
| 2026-04-25 16:52 | 25.90233 | 54.02164 | 28007 ft | 482 kts | 120° |
| 2026-04-25 16:52 | 25.88764 | 54.05445 | 26868 ft | 479 kts | 120° |
| 2026-04-25 16:53 | 25.85898 | 54.11894 | 24568 ft | 461 kts | 119° |
| 2026-04-25 16:53 | 25.84494 | 54.15054 | 23457 ft | 463 kts | 119° |
| 2026-04-25 16:53 | 25.83084 | 54.18229 | 22745 ft | 453 kts | 119° |
| 2026-04-25 16:54 | 25.81804 | 54.21361 | 21968 ft | 448 kts | 114° |
| 2026-04-25 16:54 | 25.80777 | 54.24540 | 21171 ft | 443 kts | 111° |
| 2026-04-25 16:54 | 25.79810 | 54.27702 | 20366 ft | 437 kts | 111° |
| 2026-04-25 16:54 | 25.78851 | 54.30793 | 19573 ft | 431 kts | 111° |
| 2026-04-25 16:55 | 25.77910 | 54.33817 | 18783 ft | 415 kts | 110° |
| 2026-04-25 16:55 | 25.76982 | 54.36797 | 18024 ft | 412 kts | 110° |
| 2026-04-25 16:55 | 25.76058 | 54.39755 | 17233 ft | 408 kts | 110° |
| 2026-04-25 16:55 | 25.75149 | 54.42666 | 16663 ft | 399 kts | 110° |
| 2026-04-25 16:56 | 25.74259 | 54.45519 | 16244 ft | 392 kts | 110° |
| 2026-04-25 16:56 | 25.73385 | 54.48313 | 15942 ft | 391 kts | 110° |
| 2026-04-25 16:56 | 25.72501 | 54.51143 | 15794 ft | 399 kts | 110° |
| 2026-04-25 16:56 | 25.71578 | 54.54092 | 15561 ft | 402 kts | 110° |
| 2026-04-25 16:57 | 25.70692 | 54.56925 | 15367 ft | 390 kts | 109° |
| 2026-04-25 16:57 | 25.70094 | 54.58836 | 15239 ft | 397 kts | 109° |
| 2026-04-25 16:57 | 25.68867 | 54.62707 | 14743 ft | 398 kts | 110° |
| 2026-04-25 16:57 | 25.67954 | 54.65547 | 14027 ft | 392 kts | 110° |
| 2026-04-25 16:58 | 25.67052 | 54.68348 | 13530 ft | 381 kts | 110° |
| 2026-04-25 16:58 | 25.66183 | 54.71048 | 13204 ft | 367 kts | 110° |
| 2026-04-25 16:58 | 25.65353 | 54.73629 | 13040 ft | 350 kts | 110° |
| 2026-04-25 16:58 | 25.64558 | 54.76096 | 12863 ft | 335 kts | 110° |
| 2026-04-25 16:59 | 25.63799 | 54.78455 | 12690 ft | 322 kts | 110° |
| 2026-04-25 16:59 | 25.63053 | 54.80770 | 12518 ft | 309 kts | 110° |
| 2026-04-25 16:59 | 25.62353 | 54.82942 | 12356 ft | 298 kts | 110° |
| 2026-04-25 16:59 | 25.61673 | 54.85052 | 12181 ft | 288 kts | 110° |
| 2026-04-25 17:00 | 25.60968 | 54.87127 | 11993 ft | 278 kts | 112° |
| 2026-04-25 17:00 | 25.60226 | 54.89019 | 11986 ft | 267 kts | 114° |
| 2026-04-25 17:00 | 25.59473 | 54.90937 | 11997 ft | 271 kts | 113° |
| 2026-04-25 17:00 | 25.58725 | 54.92853 | 11995 ft | 273 kts | 113° |
| 2026-04-25 17:01 | 25.57973 | 54.94783 | 11994 ft | 273 kts | 113° |
| 2026-04-25 17:01 | 25.57230 | 54.96688 | 11994 ft | 272 kts | 113° |
| 2026-04-25 17:01 | 25.56476 | 54.98623 | 11993 ft | 272 kts | 113° |
| 2026-04-25 17:01 | 25.55725 | 55.00548 | 11993 ft | 271 kts | 113° |
| 2026-04-25 17:02 | 25.54979 | 55.02459 | 11993 ft | 271 kts | 113° |
| 2026-04-25 17:02 | 25.54162 | 55.04329 | 11992 ft | 270 kts | 119° |
| 2026-04-25 17:02 | 25.53228 | 55.06108 | 11933 ft | 272 kts | 120° |
| 2026-04-25 17:02 | 25.52272 | 55.07925 | 11473 ft | 278 kts | 120° |
| 2026-04-25 17:03 | 25.50239 | 55.11832 | 10433 ft | 283 kts | 119° |
| 2026-04-25 17:03 | 25.49259 | 55.13718 | 9935 ft | 285 kts | 119° |
| 2026-04-25 17:03 | 25.48268 | 55.15625 | 9433 ft | 287 kts | 118° |
| 2026-04-25 17:04 | 25.47267 | 55.17548 | 8931 ft | 289 kts | 118° |
| 2026-04-25 17:04 | 25.46312 | 55.19376 | 8454 ft | 289 kts | 124° |
| 2026-04-25 17:04 | 25.45170 | 55.21173 | 8036 ft | 286 kts | 131° |
| 2026-04-25 17:04 | 25.43909 | 55.22787 | 7980 ft | 271 kts | 133° |
| 2026-04-25 17:05 | 25.42693 | 55.24278 | 7989 ft | 256 kts | 134° |
| 2026-04-25 17:05 | 25.40289 | 55.27152 | 8001 ft | 259 kts | 135° |
| 2026-04-25 17:05 | 25.39062 | 55.28602 | 7999 ft | 259 kts | 135° |
| 2026-04-25 17:06 | 25.37858 | 55.30038 | 8000 ft | 259 kts | 135° |
| 2026-04-25 17:06 | 25.36663 | 55.31468 | 7994 ft | 248 kts | 134° |
| 2026-04-25 17:06 | 25.35468 | 55.32776 | 7992 ft | 238 kts | 147° |
| 2026-04-25 17:06 | 25.34032 | 55.33660 | 8007 ft | 235 kts | 155° |
| 2026-04-25 17:07 | 25.32641 | 55.34440 | 8004 ft | 235 kts | 154° |
| 2026-04-25 17:07 | 25.31174 | 55.35291 | 8017 ft | 235 kts | 153° |
| 2026-04-25 17:07 | 25.29762 | 55.36116 | 8020 ft | 235 kts | 153° |
| 2026-04-25 17:07 | 25.28414 | 55.36904 | 7976 ft | 239 kts | 153° |
| 2026-04-25 17:08 | 25.26871 | 55.37807 | 7619 ft | 248 kts | 154° |
| 2026-04-25 17:08 | 25.25385 | 55.38677 | 7253 ft | 249 kts | 154° |
| 2026-04-25 17:08 | 25.24224 | 55.39357 | 6968 ft | 249 kts | 154° |
| 2026-04-25 17:08 | 25.22697 | 55.40252 | 6594 ft | 250 kts | 154° |
| 2026-04-25 17:09 | 25.21148 | 55.41158 | 6215 ft | 251 kts | 154° |
| 2026-04-25 17:09 | 25.19624 | 55.42050 | 6012 ft | 244 kts | 154° |
| 2026-04-25 17:09 | 25.18148 | 55.42914 | 6013 ft | 238 kts | 154° |
| 2026-04-25 17:09 | 25.16670 | 55.43776 | 5967 ft | 244 kts | 154° |
| 2026-04-25 17:10 | 25.15174 | 55.44650 | 5721 ft | 244 kts | 154° |
| 2026-04-25 17:10 | 25.13678 | 55.45525 | 5480 ft | 241 kts | 154° |
| 2026-04-25 17:10 | 25.12198 | 55.46389 | 5243 ft | 241 kts | 154° |
| 2026-04-25 17:10 | 25.10861 | 55.47494 | 4995 ft | 244 kts | 130° |
| 2026-04-25 17:11 | 25.09948 | 55.49072 | 4775 ft | 245 kts | 121° |
| 2026-04-25 17:11 | 25.09086 | 55.50705 | 4415 ft | 248 kts | 123° |
| 2026-04-25 17:11 | 25.08322 | 55.52361 | 4044 ft | 252 kts | 108° |
| 2026-04-25 17:11 | 25.08110 | 55.54266 | 3670 ft | 255 kts | 85° |
| 2026-04-25 17:12 | 25.08615 | 55.56098 | 3285 ft | 251 kts | 57° |
| 2026-04-25 17:12 | 25.09821 | 55.57437 | 2914 ft | 243 kts | 33° |
| 2026-04-25 17:12 | 25.11216 | 55.58441 | 2543 ft | 238 kts | 32° |
| 2026-04-25 17:12 | 25.12558 | 55.59410 | 2344 ft | 224 kts | 32° |
| 2026-04-25 17:13 | 25.13895 | 55.60187 | 2273 ft | 216 kts | 12° |
| 2026-04-25 17:13 | 25.14896 | 55.60267 | 2217 ft | 214 kts | 347° |
| 2026-04-25 17:13 | 25.16399 | 55.59064 | 2114 ft | 207 kts | 291° |
| 2026-04-25 17:13 | 25.16654 | 55.57513 | 2064 ft | 205 kts | 271° |
| 2026-04-25 17:14 | 25.16717 | 55.55953 | 2018 ft | 204 kts | 272° |
| 2026-04-25 17:14 | 25.16829 | 55.54401 | 2034 ft | 204 kts | 275° |
| 2026-04-25 17:14 | 25.16999 | 55.52831 | 2029 ft | 203 kts | 277° |
| 2026-04-25 17:14 | 25.17223 | 55.51299 | 2022 ft | 204 kts | 281° |
| 2026-04-25 17:15 | 25.17765 | 55.49873 | 2012 ft | 204 kts | 300° |
| 2026-04-25 17:15 | 25.18490 | 55.48629 | 1977 ft | 187 kts | 301° |
| 2026-04-25 17:15 | 25.19136 | 55.47488 | 1752 ft | 173 kts | 300° |
| 2026-04-25 17:15 | 25.19727 | 55.46439 | 1542 ft | 149 kts | 300° |
| 2026-04-25 17:16 | 25.20249 | 55.45503 | 1345 ft | 142 kts | 300° |
| 2026-04-25 17:16 | 25.20760 | 55.44584 | 1205 ft | 142 kts | 300° |
| 2026-04-25 17:16 | 25.21262 | 55.43681 | 981 ft | 143 kts | 300° |
| 2026-04-25 17:16 | 25.21765 | 55.42775 | 793 ft | 142 kts | 301° |
| 2026-04-25 17:17 | 25.22190 | 55.41989 | 620 ft | 141 kts | 300° |
| 2026-04-25 17:17 | 25.22651 | 55.41133 | 430 ft | 142 kts | 301° |
| 2026-04-25 17:17 | 25.23066 | 55.40401 | 285 ft | 141 kts | 302° |
| 2026-04-25 17:17 | 25.23534 | 55.39582 | 125 ft | 139 kts | 301° |
| 2026-04-25 17:18 | 25.24054 | 55.38649 | 71 ft | 83 kts | 301° |
| 2026-04-25 17:18 | 25.24280 | 55.38237 | 71 ft | 28 kts | 301° |
| 2026-04-25 17:18 | 25.24383 | 55.38050 | 71 ft | 30 kts | 301° |
| 2026-04-25 17:18 | 25.24491 | 55.37861 | 71 ft | 33 kts | 301° |
| 2026-04-25 17:19 | 25.24622 | 55.37625 | 71 ft | 40 kts | 301° |
| 2026-04-25 17:19 | 25.24759 | 55.37400 | 71 ft | 29 kts | 310° |
| 2026-04-25 17:19 | 25.24879 | 55.37293 | 71 ft | 17 kts | 329° |
| 2026-04-25 17:19 | 25.24963 | 55.37241 | 71 ft | 4 kts | 337° |
| 2026-04-25 17:20 | 25.24963 | 55.37240 | 71 ft | 0 kts | 338° |
| 2026-04-25 17:20 | 25.24964 | 55.37240 | 71 ft | 0 kts | 338° |
| 2026-04-25 17:20 | 25.24985 | 55.37231 | 71 ft | 5 kts | 338° |
| 2026-04-25 17:20 | 25.25033 | 55.37209 | 71 ft | 9 kts | 338° |
| 2026-04-25 17:21 | 25.25109 | 55.37187 | 71 ft | 12 kts | 3° |
| 2026-04-25 17:21 | 25.25178 | 55.37221 | 71 ft | 10 kts | 31° |
| 2026-04-25 17:21 | 25.25244 | 55.37266 | 71 ft | 12 kts | 31° |
| 2026-04-25 17:21 | 25.25312 | 55.37315 | 71 ft | 9 kts | 33° |
| 2026-04-25 17:22 | 25.25359 | 55.37349 | 71 ft | 8 kts | 31° |
| 2026-04-25 17:22 | 25.25375 | 55.37359 | 71 ft | 8 kts | 31° |
| 2026-04-25 17:22 | 25.25463 | 55.37374 | 71 ft | 8 kts | 303° |
| 2026-04-25 17:22 | 25.25498 | 55.37313 | 71 ft | 11 kts | 307° |
| 2026-04-25 17:23 | 25.25556 | 55.37210 | 71 ft | 20 kts | 301° |
| 2026-04-25 17:23 | 25.25646 | 55.37043 | 71 ft | 30 kts | 301° |
| 2026-04-25 17:23 | 25.25755 | 55.36847 | 71 ft | 23 kts | 303° |
| 2026-04-25 17:23 | 25.25839 | 55.36701 | 71 ft | 22 kts | 301° |
| 2026-04-25 17:24 | 25.25921 | 55.36550 | 71 ft | 23 kts | 301° |
| 2026-04-25 17:24 | 25.26006 | 55.36396 | 71 ft | 22 kts | 303° |
| 2026-04-25 17:24 | 25.26090 | 55.36248 | 71 ft | 23 kts | 301° |
| 2026-04-25 17:24 | 25.26176 | 55.36091 | 71 ft | 23 kts | 301° |
| 2026-04-25 17:25 | 25.26255 | 55.35949 | 71 ft | 21 kts | 302° |
| 2026-04-25 17:25 | 25.26337 | 55.35805 | 71 ft | 22 kts | 302° |
| 2026-04-25 17:25 | 25.26411 | 55.35669 | 71 ft | 19 kts | 301° |
| 2026-04-25 17:25 | 25.26483 | 55.35538 | 71 ft | 20 kts | 301° |
| 2026-04-25 17:26 | 25.26555 | 55.35411 | 71 ft | 18 kts | 302° |
| 2026-04-25 17:26 | 25.26616 | 55.35300 | 71 ft | 15 kts | 302° |
| 2026-04-25 17:26 | 25.26669 | 55.35204 | 71 ft | 14 kts | 301° |
| 2026-04-25 17:26 | 25.26704 | 55.35168 | 71 ft | 4 kts | 354° |
| 2026-04-25 17:27 | 25.26728 | 55.35178 | 71 ft | 2 kts | 31° |
| 2026-04-25 17:27 | 25.26753 | 55.35194 | 71 ft | 6 kts | 31° |
| 2026-04-25 17:27 | 25.26778 | 55.35211 | 71 ft | 0 kts | 31° |